createdAt,value
2022-10-17T00:02:05.899Z,12.85
2022-10-17T00:04:32.198Z,12.88
2022-10-17T00:06:58.539Z,12.87
2022-10-17T00:09:24.882Z,12.92
2022-10-17T00:11:51.219Z,12.94
2022-10-17T00:14:17.598Z,13.02
2022-10-17T00:16:44.003Z,13.08
2022-10-17T00:19:10.323Z,13.20
2022-10-17T00:21:36.677Z,13.18
2022-10-17T00:24:03.200Z,13.14
2022-10-17T00:26:29.552Z,13.28
2022-10-17T00:28:56.258Z,13.24
2022-10-17T00:31:24.001Z,13.39
2022-10-17T00:33:51.159Z,13.35
2022-10-17T00:36:21.334Z,13.41
2022-10-17T00:38:51.918Z,13.44
2022-10-17T00:41:21.059Z,13.47
2022-10-17T00:44:01.553Z,13.44
2022-10-17T00:46:38.792Z,13.34
2022-10-17T00:49:09.313Z,13.41
2022-10-17T00:51:41.738Z,13.40
2022-10-17T00:54:09.519Z,13.48
2022-10-17T00:56:35.978Z,13.51
2022-10-17T00:59:02.792Z,13.43
2022-10-17T01:01:29.386Z,13.43
2022-10-17T01:03:55.752Z,13.39
2022-10-17T01:06:22.074Z,13.36
2022-10-17T01:08:48.563Z,13.42
2022-10-17T01:11:25.092Z,13.34
2022-10-17T01:13:58.321Z,13.40
2022-10-17T01:16:39.592Z,13.38
2022-10-17T01:19:08.766Z,13.39
2022-10-17T01:21:56.956Z,13.37
2022-10-17T01:24:37.489Z,13.30
2022-10-17T01:27:34.366Z,13.24
2022-10-17T01:30:16.590Z,13.30
2022-10-17T01:33:12.502Z,13.24
2022-10-17T01:36:04.810Z,13.23
2022-10-17T01:38:43.450Z,13.17
2022-10-17T01:41:32.509Z,13.12
2022-10-17T01:44:14.071Z,13.14
2022-10-17T01:46:45.303Z,13.16
2022-10-17T01:49:16.129Z,13.27
2022-10-17T01:51:51.023Z,13.23
2022-10-17T01:54:36.106Z,13.09
2022-10-17T01:57:08.298Z,13.19
2022-10-17T01:59:45.986Z,13.16
2022-10-17T02:02:15.200Z,13.23
2022-10-17T02:04:42.471Z,13.23
2022-10-17T02:07:10.406Z,13.15
2022-10-17T02:09:37.123Z,13.20
2022-10-17T02:12:24.754Z,13.15
2022-10-17T02:15:29.336Z,13.07
2022-10-17T02:18:17.925Z,13.15
2022-10-17T02:20:53.311Z,13.10
2022-10-17T02:23:38.305Z,13.09
2022-10-17T02:26:30.379Z,13.09
2022-10-17T02:29:19.221Z,13.03
2022-10-17T02:31:49.873Z,13.07
2022-10-17T02:34:27.729Z,13.02
2022-10-17T02:36:58.243Z,13.08
2022-10-17T02:39:27.300Z,13.05
2022-10-17T02:41:57.291Z,13.01
2022-10-17T02:44:25.042Z,13.00
2022-10-17T02:47:03.086Z,12.95
2022-10-17T02:49:34.934Z,12.94
2022-10-17T02:52:14.161Z,12.89
2022-10-17T02:54:48.666Z,12.82
2022-10-17T02:57:36.793Z,12.80
2022-10-17T03:00:06.459Z,12.98
2022-10-17T03:02:45.258Z,12.95
2022-10-17T03:05:14.447Z,12.98
2022-10-17T03:07:40.758Z,12.92
2022-10-17T03:10:07.327Z,12.88
2022-10-17T03:12:33.659Z,12.95
2022-10-17T03:14:59.994Z,12.89
2022-10-17T03:17:26.346Z,12.95
2022-10-17T03:19:52.672Z,12.97
2022-10-17T03:22:18.995Z,12.96
2022-10-17T03:24:45.293Z,12.95
2022-10-17T03:27:11.873Z,12.96
2022-10-17T03:29:38.195Z,12.80
2022-10-17T03:32:04.683Z,12.93
2022-10-17T03:34:31.018Z,12.89
2022-10-17T03:36:57.348Z,12.93
2022-10-17T03:39:23.782Z,12.95
2022-10-17T03:41:50.111Z,12.89
2022-10-17T03:44:16.393Z,12.89
2022-10-17T03:46:42.752Z,12.87
2022-10-17T03:49:09.936Z,12.87
2022-10-17T03:51:36.625Z,12.82
2022-10-17T03:54:02.976Z,12.81
2022-10-17T03:56:29.339Z,12.82
2022-10-17T03:58:56.507Z,12.81
2022-10-17T04:01:23.378Z,12.84
2022-10-17T04:03:54.755Z,12.88
2022-10-17T04:06:22.205Z,12.88
2022-10-17T04:08:49.915Z,12.91
2022-10-17T04:11:21.439Z,12.85
2022-10-17T04:13:48.264Z,12.83
2022-10-17T04:16:16.930Z,12.81
2022-10-17T04:18:44.229Z,12.82
2022-10-17T04:21:11.625Z,12.85
2022-10-17T04:23:38.811Z,12.92
2022-10-17T04:26:06.004Z,12.87
2022-10-17T04:28:33.206Z,12.89
2022-10-17T04:31:08.205Z,12.83
2022-10-17T04:33:34.710Z,12.90
2022-10-17T04:36:03.669Z,12.90
2022-10-17T04:38:30.558Z,12.86
2022-10-17T04:41:00.961Z,12.99
2022-10-17T04:43:27.250Z,12.95
2022-10-17T04:45:53.592Z,12.87
2022-10-17T04:48:20.135Z,12.85
2022-10-17T04:50:56.372Z,12.81
2022-10-17T04:53:24.007Z,12.87
2022-10-17T04:55:50.849Z,12.82
2022-10-17T04:58:17.415Z,12.84
2022-10-17T05:00:43.787Z,12.85
2022-10-17T05:03:10.181Z,12.81
2022-10-17T05:05:40.783Z,12.85
2022-10-17T05:08:08.479Z,12.75
2022-10-17T05:10:39.282Z,12.74
2022-10-17T05:13:06.079Z,12.78
2022-10-17T05:15:32.745Z,12.78
2022-10-17T05:17:59.102Z,12.83
2022-10-17T05:20:26.174Z,12.79
2022-10-17T05:22:52.548Z,12.79
2022-10-17T05:25:19.320Z,12.88
2022-10-17T05:27:45.836Z,12.91
2022-10-17T05:30:12.183Z,12.88
2022-10-17T05:32:38.701Z,12.92
2022-10-17T05:35:05.584Z,12.91
2022-10-17T05:37:32.109Z,12.96
2022-10-17T05:39:58.413Z,12.87
2022-10-17T05:42:24.875Z,12.95
2022-10-17T05:44:51.232Z,12.92
2022-10-17T05:47:17.788Z,12.92
2022-10-17T05:49:48.662Z,12.94
2022-10-17T05:52:18.497Z,12.94
2022-10-17T05:54:44.830Z,12.94
2022-10-17T05:57:11.653Z,12.92
2022-10-17T05:59:37.965Z,12.94
2022-10-17T06:02:04.397Z,13.01
2022-10-17T06:04:30.745Z,13.04
2022-10-17T06:06:57.162Z,13.01
2022-10-17T06:09:24.257Z,13.12
2022-10-17T06:11:50.583Z,13.11
2022-10-17T06:14:16.957Z,13.16
2022-10-17T06:16:43.288Z,13.08
2022-10-17T06:19:09.604Z,13.26
2022-10-17T06:21:35.914Z,13.30
2022-10-17T06:24:02.246Z,13.35
2022-10-17T06:26:28.543Z,13.48
2022-10-17T06:28:55.578Z,13.54
2022-10-17T06:31:21.922Z,13.66
2022-10-17T06:33:48.234Z,13.70
2022-10-17T06:36:15.151Z,13.76
2022-10-17T06:38:41.786Z,13.81
2022-10-17T06:41:13.873Z,13.85
2022-10-17T06:43:42.024Z,13.93
2022-10-17T06:46:08.763Z,13.96
2022-10-17T06:48:35.349Z,14.00
2022-10-17T06:51:02.887Z,14.18
2022-10-17T06:53:30.815Z,14.30
2022-10-17T06:55:57.384Z,14.52
2022-10-17T06:58:23.939Z,14.63
2022-10-17T07:00:50.431Z,14.58
2022-10-17T07:03:16.862Z,14.55
2022-10-17T07:05:43.183Z,14.62
2022-10-17T07:08:09.472Z,14.67
2022-10-17T07:10:35.773Z,14.69
2022-10-17T07:13:02.083Z,14.77
2022-10-17T07:15:28.383Z,14.78
2022-10-17T07:17:54.687Z,14.86
2022-10-17T07:20:21.059Z,14.91
2022-10-17T07:22:47.344Z,14.89
2022-10-17T07:25:13.674Z,14.97
2022-10-17T07:27:40.012Z,14.88
2022-10-17T07:30:07.134Z,14.97
2022-10-17T07:32:33.525Z,14.95
2022-10-17T07:34:59.806Z,15.02
2022-10-17T07:37:26.180Z,15.08
2022-10-17T07:39:52.551Z,15.19
2022-10-17T07:42:18.855Z,15.33
2022-10-17T07:44:45.157Z,15.49
2022-10-17T07:47:11.441Z,15.57
2022-10-17T07:49:37.749Z,15.58
2022-10-17T07:52:04.089Z,15.87
2022-10-17T07:54:30.428Z,15.98
2022-10-17T07:56:56.738Z,15.93
2022-10-17T07:59:23.061Z,16.09
2022-10-17T08:01:49.366Z,16.16
2022-10-17T08:04:15.668Z,16.19
2022-10-17T08:06:42.011Z,16.30
2022-10-17T08:09:08.309Z,16.38
2022-10-17T08:11:34.627Z,16.43
2022-10-17T08:14:00.909Z,16.55
2022-10-17T08:16:27.223Z,16.53
2022-10-17T08:18:53.572Z,16.52
2022-10-17T08:21:19.971Z,16.49
2022-10-17T08:23:46.423Z,16.40
2022-10-17T08:26:13.461Z,16.57
2022-10-17T08:28:40.551Z,16.62
2022-10-17T08:31:10.337Z,16.59
2022-10-17T08:33:36.790Z,16.59
2022-10-17T08:36:05.270Z,16.65
2022-10-17T08:38:35.415Z,16.72
2022-10-17T08:41:11.859Z,16.73
2022-10-17T08:43:57.174Z,16.90
2022-10-17T08:46:31.054Z,16.91
2022-10-17T08:49:01.071Z,17.03
2022-10-17T08:51:33.693Z,17.11
2022-10-17T08:54:20.900Z,17.24
2022-10-17T08:56:51.019Z,17.37
2022-10-17T08:59:23.273Z,17.56
2022-10-17T09:02:43.455Z,17.54
2022-10-17T09:05:45.131Z,17.76
2022-10-17T09:08:35.747Z,17.86
2022-10-17T09:11:15.714Z,18.06
2022-10-17T09:13:54.247Z,17.97
2022-10-17T09:16:58.372Z,18.06
2022-10-17T09:19:35.299Z,18.20
2022-10-17T09:22:06.331Z,18.40
2022-10-17T09:24:43.110Z,18.51
2022-10-17T09:27:22.986Z,18.65
2022-10-17T09:29:54.369Z,18.87
2022-10-17T09:32:25.474Z,19.17
2022-10-17T09:34:53.552Z,19.49
2022-10-17T09:37:25.234Z,19.74
2022-10-17T09:39:51.667Z,19.85
2022-10-17T09:42:21.084Z,20.00
2022-10-17T09:44:54.591Z,20.02
2022-10-17T09:47:26.870Z,20.05
2022-10-17T09:49:53.463Z,20.20
2022-10-17T09:52:36.284Z,20.08
2022-10-17T09:55:07.186Z,20.18
2022-10-17T09:57:54.284Z,20.15
2022-10-17T10:00:26.976Z,20.04
2022-10-17T10:03:30.183Z,20.04
2022-10-17T10:06:01.187Z,20.22
2022-10-17T10:08:34.834Z,20.36
2022-10-17T10:11:05.574Z,20.53
2022-10-17T10:13:34.245Z,20.73
2022-10-17T10:16:30.610Z,20.72
2022-10-17T10:18:57.689Z,20.57
2022-10-17T10:21:26.871Z,20.64
2022-10-17T10:23:59.235Z,20.60
2022-10-17T10:26:35.042Z,20.75
2022-10-17T10:29:36.529Z,20.88
2022-10-17T10:32:11.761Z,21.03
2022-10-17T10:34:47.772Z,21.17
2022-10-17T10:37:27.168Z,21.34
2022-10-17T10:39:58.129Z,21.29
2022-10-17T10:42:28.847Z,21.55
2022-10-17T10:44:59.786Z,21.64
2022-10-17T10:47:31.148Z,21.81
2022-10-17T10:50:31.657Z,21.89
2022-10-17T10:53:21.247Z,21.99
2022-10-17T10:55:55.284Z,21.98
2022-10-17T10:58:49.225Z,21.82
2022-10-17T11:01:20.229Z,21.87
2022-10-17T11:04:04.916Z,22.02
2022-10-17T11:06:36.513Z,22.27
2022-10-17T11:09:33.112Z,22.23
2022-10-17T11:12:11.909Z,22.31
2022-10-17T11:14:40.829Z,22.29
2022-10-17T11:17:30.547Z,22.24
2022-10-17T11:20:09.285Z,22.09
2022-10-17T11:23:04.807Z,21.85
2022-10-17T11:25:37.303Z,21.79
2022-10-17T11:28:11.099Z,21.51
2022-10-17T11:31:07.085Z,21.42
2022-10-17T11:33:59.613Z,21.45
2022-10-17T11:36:30.980Z,21.42
2022-10-17T11:39:06.043Z,21.43
2022-10-17T11:41:36.757Z,21.53
2022-10-17T11:44:18.541Z,21.64
2022-10-17T11:46:50.551Z,21.57
2022-10-17T11:49:22.187Z,21.75
2022-10-17T11:52:02.411Z,21.79
2022-10-17T11:54:38.034Z,21.74
2022-10-17T11:57:32.016Z,21.77
2022-10-17T12:00:07.443Z,21.81
2022-10-17T12:02:33.929Z,21.81
2022-10-17T12:05:18.619Z,21.72
2022-10-17T12:08:08.222Z,21.70
2022-10-17T12:10:46.856Z,21.87
2022-10-17T12:13:28.498Z,21.62
2022-10-17T12:16:19.135Z,21.39
2022-10-17T12:19:19.243Z,20.84
2022-10-17T12:21:57.570Z,20.83
2022-10-17T12:24:36.491Z,20.67
2022-10-17T12:27:22.948Z,20.68
2022-10-17T12:29:50.259Z,21.04
2022-10-17T12:32:16.846Z,21.33
2022-10-17T12:34:54.523Z,21.42
2022-10-17T12:37:42.551Z,21.43
2022-10-17T12:40:36.875Z,21.36
2022-10-17T12:43:15.247Z,21.26
2022-10-17T12:45:48.567Z,21.14
2022-10-17T12:48:33.811Z,20.87
2022-10-17T12:54:10.102Z,20.73
2022-10-17T12:56:40.272Z,20.81
2022-10-17T12:59:16.514Z,20.75
2022-10-17T13:01:46.562Z,20.75
2022-10-17T13:04:13.160Z,20.82
2022-10-17T13:06:46.450Z,20.66
2022-10-17T13:09:22.627Z,20.55
2022-10-17T13:11:50.034Z,20.23
2022-10-17T13:14:19.926Z,20.27
2022-10-17T13:17:04.862Z,20.30
2022-10-17T13:19:43.427Z,20.44
2022-10-17T13:22:28.673Z,20.52
2022-10-17T13:25:08.256Z,20.64
2022-10-17T13:27:36.859Z,20.57
2022-10-17T13:30:32.000Z,20.59
2022-10-17T13:32:59.393Z,20.75
2022-10-17T13:35:58.892Z,20.66
2022-10-17T13:38:30.142Z,20.66
2022-10-17T13:41:02.005Z,20.71
2022-10-17T13:43:37.712Z,20.81
2022-10-17T13:46:19.344Z,20.74
2022-10-17T13:48:51.602Z,20.70
2022-10-17T13:51:18.052Z,20.59
2022-10-17T13:53:44.410Z,20.51
2022-10-17T13:56:33.692Z,20.44
2022-10-17T13:59:09.626Z,20.40
2022-10-17T14:01:38.155Z,20.33
2022-10-17T14:04:19.557Z,20.44
2022-10-17T14:06:49.673Z,20.57
2022-10-17T14:09:23.648Z,20.39
2022-10-17T14:12:09.740Z,20.31
2022-10-17T14:14:58.341Z,20.28
2022-10-17T14:17:29.843Z,20.17
2022-10-17T14:20:16.137Z,20.18
2022-10-17T14:22:50.434Z,20.15
2022-10-17T14:25:39.187Z,20.03
2022-10-17T14:28:11.462Z,19.84
2022-10-17T14:33:30.084Z,19.89
2022-10-17T14:35:59.244Z,20.00
2022-10-17T14:38:26.884Z,19.99
2022-10-17T14:41:41.795Z,19.95
2022-10-17T14:43:58.029Z,19.95
2022-10-17T14:46:25.371Z,19.94
2022-10-17T14:49:02.344Z,19.80
2022-10-17T14:51:32.553Z,19.52
2022-10-17T14:54:27.083Z,19.55
2022-10-17T14:56:54.059Z,19.53
2022-10-17T14:59:30.244Z,19.53
2022-10-17T15:02:06.775Z,19.45
2022-10-17T15:04:33.104Z,19.33
2022-10-17T15:06:59.414Z,19.35
2022-10-17T15:09:25.936Z,19.33
2022-10-17T15:11:52.582Z,19.29
2022-10-17T15:14:18.899Z,19.34
2022-10-17T15:16:45.204Z,19.37
2022-10-17T15:19:13.540Z,19.35
2022-10-17T15:21:44.694Z,19.40
2022-10-17T15:24:13.396Z,19.45
2022-10-17T15:26:39.753Z,19.56
2022-10-17T15:29:06.476Z,19.56
2022-10-17T15:31:33.206Z,19.56
2022-10-17T15:33:59.540Z,19.55
2022-10-17T15:36:28.419Z,19.56
2022-10-17T15:38:57.254Z,19.47
2022-10-17T15:41:26.323Z,19.39
2022-10-17T15:43:52.907Z,19.39
2022-10-17T15:46:27.905Z,19.31
2022-10-17T15:48:55.716Z,19.23
2022-10-17T15:51:23.255Z,19.16
2022-10-17T15:53:49.607Z,19.15
2022-10-17T15:56:22.887Z,19.07
2022-10-17T15:58:49.573Z,18.99
2022-10-17T16:01:22.030Z,18.86
2022-10-17T16:03:48.437Z,18.83
2022-10-17T16:06:14.885Z,18.77
2022-10-17T16:08:41.268Z,18.77
2022-10-17T16:11:15.105Z,18.74
2022-10-17T16:13:41.511Z,18.65
2022-10-17T16:16:11.912Z,18.71
2022-10-17T16:18:38.263Z,18.76
2022-10-17T16:21:04.751Z,18.73
2022-10-17T16:23:31.054Z,18.62
2022-10-17T16:25:57.364Z,18.62
2022-10-17T16:28:23.710Z,18.51
2022-10-17T16:30:50.107Z,18.62
2022-10-17T16:33:16.401Z,18.57
2022-10-17T16:35:42.802Z,18.62
2022-10-17T16:38:09.102Z,18.52
2022-10-17T16:40:38.532Z,18.61
2022-10-17T16:43:04.847Z,18.59
2022-10-17T16:45:31.364Z,18.62
2022-10-17T16:47:57.694Z,18.59
2022-10-17T16:50:24.152Z,18.37
2022-10-17T16:52:50.629Z,18.20
2022-10-17T16:55:17.179Z,18.13
2022-10-17T17:00:11.839Z,18.08
2022-10-17T17:02:38.548Z,18.14
2022-10-17T17:05:05.349Z,18.11
2022-10-17T17:07:32.121Z,18.05
2022-10-17T17:09:58.559Z,17.97
2022-10-17T17:12:24.961Z,18.05
2022-10-17T17:14:51.309Z,17.97
2022-10-17T17:17:30.276Z,17.94
2022-10-17T17:20:04.232Z,17.90
2022-10-17T17:22:30.600Z,17.81
2022-10-17T17:24:56.927Z,17.76
2022-10-17T17:27:23.234Z,17.69
2022-10-17T17:29:49.539Z,17.65
2022-10-17T17:32:15.839Z,17.61
2022-10-17T17:34:42.164Z,17.52
2022-10-17T17:37:08.468Z,17.57
2022-10-17T17:39:34.934Z,17.48
2022-10-17T17:42:01.273Z,17.45
2022-10-17T17:44:27.567Z,17.39
2022-10-17T17:46:53.866Z,17.39
2022-10-17T17:49:20.226Z,17.36
2022-10-17T17:51:46.655Z,17.48
2022-10-17T17:54:13.291Z,17.43
2022-10-17T17:56:40.181Z,17.37
2022-10-17T17:59:07.022Z,17.35
2022-10-17T18:01:34.933Z,17.34
2022-10-17T18:04:01.291Z,17.27
2022-10-17T18:06:28.098Z,17.27
2022-10-17T18:08:57.267Z,17.22
2022-10-17T18:11:24.189Z,17.19
2022-10-17T18:13:58.906Z,17.13
2022-10-17T18:16:26.147Z,17.18
2022-10-17T18:18:52.847Z,17.16
2022-10-17T18:21:19.198Z,17.02
2022-10-17T18:23:47.625Z,16.96
2022-10-17T18:26:14.375Z,16.96
2022-10-17T18:31:19.628Z,16.84
2022-10-17T18:33:46.358Z,16.78
2022-10-17T18:36:14.705Z,16.70
2022-10-17T18:38:41.848Z,16.72
2022-10-17T18:41:13.644Z,16.67
2022-10-17T18:43:41.858Z,16.59
2022-10-17T18:46:13.877Z,16.48
2022-10-17T18:48:43.247Z,16.42
2022-10-17T18:51:09.930Z,16.37
2022-10-17T18:53:40.508Z,16.24
2022-10-17T18:56:07.639Z,16.27
2022-10-17T18:58:34.019Z,16.24
2022-10-17T19:01:05.475Z,16.22
2022-10-17T19:03:32.398Z,16.25
2022-10-17T19:06:07.588Z,16.16
2022-10-17T19:08:35.064Z,16.24
2022-10-17T19:11:12.491Z,16.22
2022-10-17T19:13:39.616Z,16.17
2022-10-17T19:16:11.321Z,16.25
2022-10-17T19:18:38.106Z,16.23
2022-10-17T19:21:06.847Z,16.35
2022-10-17T19:23:33.721Z,16.32
2022-10-17T19:26:05.298Z,16.23
2022-10-17T19:28:32.644Z,16.34
2022-10-17T19:30:59.015Z,16.32
2022-10-17T19:33:25.624Z,16.38
2022-10-17T19:35:56.487Z,16.25
2022-10-17T19:38:22.853Z,16.38
2022-10-17T19:40:49.439Z,16.29
2022-10-17T19:43:15.953Z,16.31
2022-10-17T19:45:42.426Z,16.34
2022-10-17T19:48:08.912Z,16.36
2022-10-17T19:50:36.728Z,16.32
2022-10-17T19:53:05.562Z,16.30
2022-10-17T19:55:32.881Z,16.33
2022-10-17T19:57:59.202Z,16.36
2022-10-17T20:00:25.509Z,16.37
2022-10-17T20:02:51.839Z,16.33
2022-10-17T20:05:19.217Z,16.28
2022-10-17T20:07:46.046Z,16.34
2022-10-17T20:10:12.382Z,16.34
2022-10-17T20:12:38.715Z,16.30
2022-10-17T20:15:05.484Z,16.27
2022-10-17T20:17:31.963Z,16.34
2022-10-17T20:19:58.309Z,16.31
2022-10-17T20:22:24.731Z,16.30
2022-10-17T20:24:51.076Z,16.18
2022-10-17T20:27:17.412Z,16.07
2022-10-17T20:29:43.718Z,16.16
2022-10-17T20:32:10.059Z,16.22
2022-10-17T20:34:36.834Z,16.19
2022-10-17T20:37:03.369Z,16.14
2022-10-17T20:39:30.296Z,16.11
2022-10-17T20:41:56.682Z,16.12
2022-10-17T20:44:23.006Z,16.12
2022-10-17T20:47:01.200Z,16.19
2022-10-17T20:49:29.825Z,16.09
2022-10-17T20:51:56.653Z,16.12
2022-10-17T20:54:22.985Z,16.13
2022-10-17T20:56:49.590Z,15.96
2022-10-17T20:59:17.201Z,16.02
2022-10-17T21:01:44.722Z,16.05
2022-10-17T21:04:40.663Z,16.03
2022-10-17T21:06:58.604Z,16.10
2022-10-17T21:09:25.147Z,16.07
2022-10-17T21:11:51.783Z,16.00
2022-10-17T21:14:18.488Z,15.87
2022-10-17T21:16:44.839Z,15.89
2022-10-17T21:19:12.627Z,15.84
2022-10-17T21:21:41.675Z,15.76
2022-10-17T21:24:10.447Z,15.84
2022-10-17T21:26:37.523Z,15.89
2022-10-17T21:29:04.971Z,15.85
2022-10-17T21:31:35.852Z,15.81
2022-10-17T21:34:08.245Z,15.87
2022-10-17T21:36:34.790Z,15.81
2022-10-17T21:39:01.269Z,15.79
2022-10-17T21:41:29.152Z,15.82
2022-10-17T21:44:03.871Z,15.82
2022-10-17T21:46:30.495Z,15.81
2022-10-17T21:48:59.085Z,15.77
2022-10-17T21:51:26.419Z,15.78
2022-10-17T21:53:54.354Z,15.80
2022-10-17T21:56:23.271Z,15.75
2022-10-17T21:58:51.120Z,15.78
2022-10-17T22:01:20.312Z,15.68
2022-10-17T22:03:50.727Z,15.70
2022-10-17T22:09:09.954Z,15.68
2022-10-17T22:11:36.640Z,15.64
2022-10-17T22:14:05.875Z,15.57
2022-10-17T22:16:32.907Z,15.52
2022-10-17T22:19:04.812Z,15.54
2022-10-17T22:21:33.972Z,15.56
2022-10-17T22:24:03.340Z,15.61
2022-10-17T22:26:31.188Z,15.63
2022-10-17T22:28:58.009Z,15.63
2022-10-17T22:31:24.657Z,15.59
2022-10-17T22:33:51.290Z,15.57
2022-10-17T22:36:17.971Z,15.64
2022-10-17T22:38:44.475Z,15.60
2022-10-17T22:41:11.040Z,15.58
2022-10-17T22:43:37.450Z,15.59
2022-10-17T22:46:06.004Z,15.53
2022-10-17T22:48:32.668Z,15.47
2022-10-17T22:51:00.210Z,15.47
2022-10-17T22:53:27.070Z,15.46
2022-10-17T22:55:55.343Z,15.40
2022-10-17T22:58:22.193Z,15.46
2022-10-17T23:00:49.808Z,15.47
2022-10-17T23:03:16.919Z,15.42
2022-10-17T23:05:43.867Z,15.51
2022-10-17T23:08:11.331Z,15.53
2022-10-17T23:10:37.946Z,15.54
2022-10-17T23:13:05.014Z,15.48
2022-10-17T23:15:32.726Z,15.41
2022-10-17T23:18:00.273Z,15.37
2022-10-17T23:20:27.440Z,15.46
2022-10-17T23:22:53.873Z,15.44
2022-10-17T23:25:20.273Z,15.41
2022-10-17T23:27:46.613Z,15.38
2022-10-17T23:30:13.412Z,15.37
2022-10-17T23:32:40.539Z,15.31
2022-10-17T23:35:08.195Z,15.40
2022-10-17T23:37:35.259Z,15.26
2022-10-17T23:40:01.952Z,15.21
2022-10-17T23:42:28.448Z,15.19
2022-10-17T23:44:54.940Z,15.21
2022-10-17T23:47:21.450Z,15.28
2022-10-17T23:52:15.674Z,15.35
2022-10-17T23:57:13.578Z,15.40
2022-10-17T23:59:39.898Z,15.33
